createdAt,value
2022-08-25T00:00:22.578Z,22.48
2022-08-25T00:02:55.144Z,22.50
2022-08-25T00:05:27.751Z,22.50
2022-08-25T00:07:58.073Z,22.51
2022-08-25T00:10:26.516Z,22.50
2022-08-25T00:12:54.935Z,22.47
2022-08-25T00:15:23.961Z,22.47
2022-08-25T00:17:52.664Z,22.45
2022-08-25T00:20:22.904Z,22.46
2022-08-25T00:22:51.810Z,22.44
2022-08-25T00:25:20.371Z,22.41
2022-08-25T00:27:49.829Z,22.38
2022-08-25T00:30:18.585Z,22.35
2022-08-25T00:32:55.164Z,22.31
2022-08-25T00:35:26.420Z,22.29
2022-08-25T00:37:55.546Z,22.28
2022-08-25T00:40:26.278Z,22.28
2022-08-25T00:42:56.087Z,22.26
2022-08-25T00:45:25.432Z,22.22
2022-08-25T00:47:53.976Z,22.19
2022-08-25T00:50:26.761Z,22.15
2022-08-25T00:52:59.103Z,22.15
2022-08-25T00:55:39.803Z,22.13
2022-08-25T00:58:14.600Z,22.11
2022-08-25T01:00:50.982Z,22.09
2022-08-25T01:03:20.573Z,22.05
2022-08-25T01:05:56.989Z,22.02
2022-08-25T01:08:28.949Z,21.99
2022-08-25T01:11:03.033Z,21.97
2022-08-25T01:13:45.275Z,21.93
2022-08-25T01:16:16.330Z,21.89
2022-08-25T01:18:56.462Z,21.86
2022-08-25T01:21:25.636Z,21.81
2022-08-25T01:23:58.300Z,21.78
2022-08-25T01:26:32.806Z,21.74
2022-08-25T01:29:22.766Z,21.72
2022-08-25T01:32:03.827Z,21.68
2022-08-25T01:34:36.613Z,21.65
2022-08-25T01:37:05.792Z,21.61
2022-08-25T01:39:36.824Z,21.59
2022-08-25T01:42:11.672Z,21.59
2022-08-25T01:44:43.705Z,21.53
2022-08-25T01:47:13.825Z,21.51
2022-08-25T01:49:42.411Z,21.50
2022-08-25T01:52:16.927Z,21.48
2022-08-25T01:54:45.478Z,21.47
2022-08-25T01:57:13.870Z,21.43
2022-08-25T01:59:42.543Z,21.40
2022-08-25T02:02:11.012Z,21.38
2022-08-25T02:04:44.375Z,21.35
2022-08-25T02:07:13.225Z,21.33
2022-08-25T02:09:41.617Z,21.31
2022-08-25T02:12:09.980Z,21.28
2022-08-25T02:14:38.552Z,21.25
2022-08-25T02:17:07.076Z,21.20
2022-08-25T02:19:38.003Z,21.17
2022-08-25T02:22:06.506Z,21.15
2022-08-25T02:24:35.120Z,21.13
2022-08-25T02:27:05.240Z,21.10
2022-08-25T02:29:33.929Z,21.06
2022-08-25T02:32:03.227Z,21.05
2022-08-25T02:34:31.874Z,21.01
2022-08-25T02:37:00.254Z,20.98
2022-08-25T02:39:28.571Z,20.94
2022-08-25T02:41:57.287Z,20.92
2022-08-25T02:44:25.715Z,20.88
2022-08-25T02:46:54.209Z,20.86
2022-08-25T02:49:22.513Z,20.83
2022-08-25T02:51:50.943Z,20.82
2022-08-25T02:54:19.204Z,20.80
2022-08-25T02:56:48.622Z,20.78
2022-08-25T02:59:18.173Z,20.79
2022-08-25T03:01:46.899Z,20.77
2022-08-25T03:04:15.235Z,20.74
2022-08-25T03:06:44.233Z,20.73
2022-08-25T03:09:13.702Z,20.72
2022-08-25T03:11:42.024Z,20.70
2022-08-25T03:14:11.086Z,20.69
2022-08-25T03:16:40.518Z,20.67
2022-08-25T03:19:11.363Z,20.63
2022-08-25T03:21:40.140Z,20.59
2022-08-25T03:24:08.626Z,20.55
2022-08-25T03:26:55.933Z,20.54
2022-08-25T03:29:31.224Z,20.52
2022-08-25T03:32:00.915Z,20.50
2022-08-25T03:34:30.700Z,20.45
2022-08-25T03:36:59.789Z,20.43
2022-08-25T03:39:29.148Z,20.41
2022-08-25T03:41:59.407Z,20.37
2022-08-25T03:44:27.790Z,20.34
2022-08-25T03:46:56.121Z,20.32
2022-08-25T03:49:24.703Z,20.30
2022-08-25T03:51:54.912Z,20.30
2022-08-25T03:54:25.806Z,20.26
2022-08-25T03:56:54.985Z,20.23
2022-08-25T03:59:23.597Z,20.21
2022-08-25T04:01:55.164Z,20.20
2022-08-25T04:04:24.427Z,20.17
2022-08-25T04:06:53.148Z,20.16
2022-08-25T04:09:22.077Z,20.15
2022-08-25T04:11:53.206Z,20.13
2022-08-25T04:14:23.599Z,20.11
2022-08-25T04:16:53.178Z,20.07
2022-08-25T04:19:22.106Z,20.06
2022-08-25T04:21:51.821Z,20.03
2022-08-25T04:24:25.210Z,20.01
2022-08-25T04:26:53.741Z,20.00
2022-08-25T04:29:24.585Z,19.99
2022-08-25T04:31:54.678Z,19.99
2022-08-25T04:34:30.601Z,19.97
2022-08-25T04:37:02.549Z,19.95
2022-08-25T04:39:31.405Z,19.94
2022-08-25T04:42:02.900Z,19.93
2022-08-25T04:44:32.049Z,19.94
2022-08-25T04:47:02.014Z,19.93
2022-08-25T04:49:32.736Z,19.92
2022-08-25T04:52:01.145Z,19.90
2022-08-25T04:54:29.527Z,19.91
2022-08-25T04:57:05.786Z,19.92
2022-08-25T04:59:34.247Z,19.92
2022-08-25T05:02:03.403Z,19.94
2022-08-25T05:04:34.858Z,19.94
2022-08-25T05:07:04.363Z,19.96
2022-08-25T05:09:33.076Z,19.98
2022-08-25T05:12:02.777Z,19.99
2022-08-25T05:14:32.559Z,20.01
2022-08-25T05:17:01.117Z,20.03
2022-08-25T05:19:29.966Z,20.03
2022-08-25T05:21:59.113Z,20.04
2022-08-25T05:24:28.317Z,20.05
2022-08-25T05:26:57.377Z,20.08
2022-08-25T05:29:26.193Z,20.10
2022-08-25T05:31:54.678Z,20.12
2022-08-25T05:34:23.201Z,20.15
2022-08-25T05:36:51.683Z,20.17
2022-08-25T05:39:20.355Z,20.19
2022-08-25T05:41:48.743Z,20.22
2022-08-25T05:44:20.944Z,20.23
2022-08-25T05:46:50.249Z,20.25
2022-08-25T05:49:19.245Z,20.27
2022-08-25T05:51:47.824Z,20.29
2022-08-25T05:54:16.309Z,20.33
2022-08-25T05:56:45.679Z,20.34
2022-08-25T05:59:14.096Z,20.36
2022-08-25T06:02:01.145Z,20.39
2022-08-25T06:04:29.548Z,20.45
2022-08-25T06:06:57.949Z,20.52
2022-08-25T06:09:26.559Z,20.66
2022-08-25T06:11:55.571Z,20.80
2022-08-25T06:14:25.800Z,20.84
2022-08-25T06:16:54.532Z,20.90
2022-08-25T06:19:23.652Z,20.95
2022-08-25T06:21:57.404Z,21.02
2022-08-25T06:24:27.045Z,21.12
2022-08-25T06:26:56.797Z,21.20
2022-08-25T06:29:27.052Z,21.37
2022-08-25T06:31:55.529Z,21.50
2022-08-25T06:34:24.466Z,21.57
2022-08-25T06:36:53.310Z,21.60
2022-08-25T06:39:22.397Z,21.63
2022-08-25T06:41:55.384Z,21.65
2022-08-25T06:44:27.809Z,21.68
2022-08-25T06:46:56.270Z,21.73
2022-08-25T06:49:28.728Z,21.77
2022-08-25T06:51:58.419Z,21.83
2022-08-25T06:54:26.702Z,21.91
2022-08-25T06:56:55.025Z,22.17
2022-08-25T06:59:23.519Z,22.37
2022-08-25T07:01:52.336Z,22.49
2022-08-25T07:04:22.051Z,22.69
2022-08-25T07:06:50.701Z,22.97
2022-08-25T07:09:19.543Z,23.09
2022-08-25T07:11:48.166Z,23.07
2022-08-25T07:14:18.339Z,22.97
2022-08-25T07:16:50.265Z,22.97
2022-08-25T07:19:21.016Z,23.00
2022-08-25T07:21:52.360Z,23.00
2022-08-25T07:24:21.895Z,23.00
2022-08-25T07:26:51.697Z,23.02
2022-08-25T07:29:32.341Z,23.03
2022-08-25T07:32:02.418Z,23.11
2022-08-25T07:34:52.327Z,23.23
2022-08-25T07:40:33.631Z,23.35
2022-08-25T07:43:06.224Z,23.38
2022-08-25T07:45:37.632Z,23.41
2022-08-25T07:48:14.114Z,23.45
2022-08-25T07:50:48.405Z,23.48
2022-08-25T07:53:17.123Z,23.55
2022-08-25T07:55:47.138Z,23.61
2022-08-25T07:58:15.916Z,23.67
2022-08-25T08:00:48.103Z,23.76
2022-08-25T08:03:35.264Z,23.82
2022-08-25T08:06:09.800Z,23.85
2022-08-25T08:08:44.544Z,23.87
2022-08-25T08:11:17.532Z,23.91
2022-08-25T08:13:48.431Z,23.94
2022-08-25T08:16:20.585Z,23.96
2022-08-25T08:18:50.005Z,24.05
2022-08-25T08:21:32.320Z,24.18
2022-08-25T08:24:02.050Z,24.27
2022-08-25T08:26:55.472Z,24.36
2022-08-25T08:29:23.239Z,24.48
2022-08-25T08:31:51.649Z,24.64
2022-08-25T08:34:24.977Z,24.82
2022-08-25T08:36:53.795Z,24.99
2022-08-25T08:39:23.238Z,25.12
2022-08-25T08:42:29.605Z,25.27
2022-08-25T08:45:28.811Z,25.44
2022-08-25T08:48:10.196Z,25.60
2022-08-25T08:51:10.946Z,25.74
2022-08-25T08:53:57.299Z,25.79
2022-08-25T08:56:30.801Z,25.92
2022-08-25T08:59:05.769Z,25.95
2022-08-25T09:02:00.484Z,25.98
2022-08-25T09:04:48.560Z,26.04
2022-08-25T09:07:27.800Z,25.99
2022-08-25T09:09:57.987Z,25.97
2022-08-25T09:12:40.862Z,26.04
2022-08-25T09:15:20.718Z,26.11
2022-08-25T09:18:16.168Z,26.11
2022-08-25T09:20:59.829Z,26.03
2022-08-25T09:23:33.983Z,26.02
2022-08-25T09:26:36.157Z,26.06
2022-08-25T09:29:17.259Z,26.19
2022-08-25T09:31:48.490Z,26.14
2022-08-25T09:34:20.726Z,26.15
2022-08-25T09:36:52.883Z,26.18
2022-08-25T09:39:23.422Z,26.19
2022-08-25T09:41:59.167Z,26.18
2022-08-25T09:44:33.760Z,26.28
2022-08-25T09:47:08.179Z,26.26
2022-08-25T09:49:43.247Z,26.24
2022-08-25T09:52:27.314Z,26.24
2022-08-25T09:54:58.103Z,26.25
2022-08-25T09:57:36.357Z,26.29
2022-08-25T10:00:21.736Z,26.34
2022-08-25T10:03:05.908Z,26.30
2022-08-25T10:05:39.390Z,26.32
2022-08-25T10:08:24.773Z,26.29
2022-08-25T10:10:57.399Z,26.34
2022-08-25T10:13:49.890Z,26.39
2022-08-25T10:16:30.837Z,26.42
2022-08-25T10:19:21.306Z,26.46
2022-08-25T10:22:10.869Z,26.48
2022-08-25T10:24:43.971Z,26.45
2022-08-25T10:27:38.040Z,26.53
2022-08-25T10:30:28.029Z,26.64
2022-08-25T10:33:15.174Z,26.71
2022-08-25T10:36:23.584Z,26.79
2022-08-25T10:39:01.599Z,26.89
2022-08-25T10:41:54.337Z,26.95
2022-08-25T10:44:57.235Z,26.99
2022-08-25T10:47:31.821Z,27.11
2022-08-25T10:50:29.589Z,27.23
2022-08-25T10:53:21.225Z,27.25
2022-08-25T10:56:10.289Z,27.28
2022-08-25T10:58:57.039Z,27.31
2022-08-25T11:01:46.989Z,27.35
2022-08-25T11:04:48.597Z,27.44
2022-08-25T11:07:25.321Z,27.55
2022-08-25T11:10:00.019Z,27.63
2022-08-25T11:12:35.878Z,27.71
2022-08-25T11:15:11.154Z,27.74
2022-08-25T11:18:02.664Z,27.81
2022-08-25T11:21:01.992Z,27.88
2022-08-25T11:23:39.065Z,27.87
2022-08-25T11:26:17.774Z,27.97
2022-08-25T11:28:57.579Z,27.97
2022-08-25T11:31:28.328Z,28.05
2022-08-25T11:33:58.987Z,28.15
2022-08-25T11:36:32.544Z,28.19
2022-08-25T11:39:34.389Z,28.31
2022-08-25T11:42:43.346Z,28.36
2022-08-25T11:45:27.019Z,28.41
2022-08-25T11:48:24.579Z,28.53
2022-08-25T11:51:00.736Z,28.63
2022-08-25T11:53:33.514Z,28.70
2022-08-25T11:56:06.639Z,28.71
2022-08-25T11:58:50.076Z,28.72
2022-08-25T12:01:40.561Z,28.74
2022-08-25T12:04:44.386Z,28.67
2022-08-25T12:07:26.214Z,28.65
2022-08-25T12:09:54.574Z,28.65
2022-08-25T12:12:58.864Z,28.58
2022-08-25T12:15:42.887Z,28.59
2022-08-25T12:18:24.498Z,28.56
2022-08-25T12:20:52.794Z,28.55
2022-08-25T12:23:46.405Z,28.55
2022-08-25T12:26:34.520Z,28.57
2022-08-25T12:29:16.700Z,28.58
2022-08-25T12:31:57.499Z,28.52
2022-08-25T12:34:45.183Z,28.55
2022-08-25T12:37:13.938Z,28.57
2022-08-25T12:39:58.671Z,28.62
2022-08-25T12:42:29.967Z,28.66
2022-08-25T12:45:14.963Z,28.73
2022-08-25T12:47:47.701Z,28.84
2022-08-25T12:50:27.521Z,28.85
2022-08-25T12:53:07.579Z,28.88
2022-08-25T12:55:37.426Z,28.90
2022-08-25T12:58:07.530Z,28.93
2022-08-25T13:01:33.110Z,28.90
2022-08-25T13:07:04.859Z,28.84
2022-08-25T13:09:58.867Z,28.82
2022-08-25T13:13:04.619Z,28.81
2022-08-25T13:15:42.564Z,28.85
2022-08-25T13:18:22.617Z,28.90
2022-08-25T13:21:04.455Z,28.87
2022-08-25T13:23:37.941Z,28.88
2022-08-25T13:26:06.735Z,28.88
2022-08-25T13:28:40.841Z,28.91
2022-08-25T13:31:22.142Z,28.98
2022-08-25T13:34:02.383Z,29.03
2022-08-25T13:36:58.258Z,29.04
2022-08-25T13:39:52.683Z,29.01
2022-08-25T13:42:17.542Z,29.01
2022-08-25T13:44:51.773Z,29.05
2022-08-25T13:48:02.961Z,29.12
2022-08-25T13:50:39.772Z,29.20
2022-08-25T13:53:21.477Z,29.16
2022-08-25T13:56:02.309Z,29.09
2022-08-25T13:58:45.027Z,29.08
2022-08-25T14:01:45.024Z,29.07
2022-08-25T14:04:26.943Z,29.12
2022-08-25T14:07:08.473Z,29.13
2022-08-25T14:09:48.329Z,29.15
2022-08-25T14:12:39.681Z,29.16
2022-08-25T14:15:29.647Z,29.18
2022-08-25T14:18:09.622Z,29.16
2022-08-25T14:20:50.789Z,29.22
2022-08-25T14:23:27.054Z,29.28
2022-08-25T14:25:57.962Z,29.32
2022-08-25T14:28:29.373Z,29.32
2022-08-25T14:31:10.071Z,29.31
2022-08-25T14:33:55.818Z,29.31
2022-08-25T14:36:25.037Z,29.29
2022-08-25T14:38:55.057Z,29.30
2022-08-25T14:41:24.801Z,29.30
2022-08-25T14:43:53.825Z,29.30
2022-08-25T14:46:25.097Z,29.29
2022-08-25T14:48:59.717Z,29.33
2022-08-25T14:51:29.678Z,29.36
2022-08-25T14:54:02.767Z,29.39
2022-08-25T14:56:32.622Z,29.42
2022-08-25T14:59:01.774Z,29.46
2022-08-25T15:01:30.346Z,29.47
2022-08-25T15:04:06.839Z,29.46
2022-08-25T15:06:38.747Z,29.47
2022-08-25T15:09:17.199Z,29.47
2022-08-25T15:11:50.578Z,29.49
2022-08-25T15:14:29.033Z,29.49
2022-08-25T15:17:02.690Z,29.47
2022-08-25T15:19:31.591Z,29.47
2022-08-25T15:22:00.370Z,29.46
2022-08-25T15:24:29.437Z,29.43
2022-08-25T15:27:00.807Z,29.41
2022-08-25T15:29:31.923Z,29.39
2022-08-25T15:32:01.753Z,29.37
2022-08-25T15:34:31.000Z,29.35
2022-08-25T15:37:08.528Z,29.33
2022-08-25T15:39:38.869Z,29.32
2022-08-25T15:42:07.512Z,29.30
2022-08-25T15:44:35.881Z,29.29
2022-08-25T15:47:05.799Z,29.26
2022-08-25T15:49:35.253Z,29.22
2022-08-25T15:52:04.280Z,29.19
2022-08-25T15:54:33.242Z,29.15
2022-08-25T15:57:01.702Z,29.14
2022-08-25T15:59:30.594Z,29.10
2022-08-25T16:02:00.434Z,29.06
2022-08-25T16:04:29.502Z,29.04
2022-08-25T16:06:58.330Z,29.02
2022-08-25T16:09:27.118Z,28.99
2022-08-25T16:11:57.068Z,28.96
2022-08-25T16:14:27.584Z,28.93
2022-08-25T16:16:58.360Z,28.90
2022-08-25T16:19:31.544Z,28.86
2022-08-25T16:22:00.685Z,28.84
2022-08-25T16:24:29.118Z,28.82
2022-08-25T16:27:10.895Z,28.80
2022-08-25T16:29:44.045Z,28.74
2022-08-25T16:32:14.244Z,28.72
2022-08-25T16:34:42.846Z,28.67
2022-08-25T16:37:14.322Z,28.63
2022-08-25T16:39:46.118Z,28.58
2022-08-25T16:42:14.757Z,28.54
2022-08-25T16:44:43.837Z,28.50
2022-08-25T16:47:14.454Z,28.46
2022-08-25T16:49:46.880Z,28.43
2022-08-25T16:52:34.365Z,28.41
2022-08-25T16:55:16.386Z,28.37
2022-08-25T16:57:48.213Z,28.34
2022-08-25T17:00:24.078Z,28.29
2022-08-25T17:02:59.459Z,28.25
2022-08-25T17:05:29.365Z,28.22
2022-08-25T17:08:30.828Z,28.17
2022-08-25T17:11:05.877Z,28.12
2022-08-25T17:13:36.645Z,28.10
2022-08-25T17:16:07.463Z,28.05
2022-08-25T17:18:36.238Z,28.01
2022-08-25T17:21:11.091Z,27.96
2022-08-25T17:23:44.998Z,27.92
2022-08-25T17:26:17.201Z,27.92
2022-08-25T17:28:46.246Z,27.90
2022-08-25T17:31:15.762Z,27.87
2022-08-25T17:33:45.627Z,27.83
2022-08-25T17:36:17.090Z,27.78
2022-08-25T17:38:46.333Z,27.74
2022-08-25T17:41:15.020Z,27.72
2022-08-25T17:43:46.379Z,27.68
2022-08-25T17:46:15.325Z,27.62
2022-08-25T17:48:44.079Z,27.56
2022-08-25T17:51:13.052Z,27.50
2022-08-25T17:53:44.501Z,27.45
2022-08-25T17:56:18.551Z,27.38
2022-08-25T17:58:47.359Z,27.33
2022-08-25T18:01:24.944Z,27.29
2022-08-25T18:03:54.444Z,27.25
2022-08-25T18:06:26.267Z,27.20
2022-08-25T18:08:59.928Z,27.17
2022-08-25T18:11:30.143Z,27.11
2022-08-25T18:13:59.562Z,27.05
2022-08-25T18:16:30.350Z,26.99
2022-08-25T18:18:58.938Z,26.93
2022-08-25T18:21:30.562Z,26.87
2022-08-25T18:23:59.387Z,26.81
2022-08-25T18:26:28.289Z,26.75
2022-08-25T18:28:56.679Z,26.72
2022-08-25T18:31:25.542Z,26.64
2022-08-25T18:33:54.098Z,26.57
2022-08-25T18:36:22.572Z,26.48
2022-08-25T18:39:10.121Z,26.39
2022-08-25T18:41:41.328Z,26.27
2022-08-25T18:44:11.013Z,26.18
2022-08-25T18:46:40.207Z,26.06
2022-08-25T18:49:08.698Z,25.95
2022-08-25T18:51:37.699Z,25.87
2022-08-25T18:54:06.277Z,25.78
2022-08-25T18:56:35.014Z,25.69
2022-08-25T18:59:04.753Z,25.59
2022-08-25T19:01:36.587Z,25.53
2022-08-25T19:04:05.153Z,25.44
2022-08-25T19:06:33.339Z,25.36
2022-08-25T19:09:02.122Z,25.30
2022-08-25T19:11:31.248Z,25.23
2022-08-25T19:14:00.998Z,25.18
2022-08-25T19:16:38.727Z,25.12
2022-08-25T19:19:09.242Z,25.06
2022-08-25T19:21:38.658Z,25.02
2022-08-25T19:24:08.976Z,25.04
2022-08-25T19:26:37.608Z,25.04
2022-08-25T19:29:10.342Z,25.02
2022-08-25T19:31:39.741Z,25.01
2022-08-25T19:34:13.786Z,24.97
2022-08-25T19:36:43.901Z,24.92
2022-08-25T19:39:14.268Z,24.87
2022-08-25T19:41:46.494Z,24.81
2022-08-25T19:44:15.109Z,24.77
2022-08-25T19:46:45.306Z,24.73
2022-08-25T19:49:18.259Z,24.71
2022-08-25T19:51:51.553Z,24.67
2022-08-25T19:54:25.103Z,24.63
2022-08-25T19:56:55.612Z,24.61
2022-08-25T19:59:40.479Z,24.59
2022-08-25T20:02:16.827Z,24.51
2022-08-25T20:04:51.145Z,24.46
2022-08-25T20:07:22.976Z,24.41
2022-08-25T20:09:53.631Z,24.34
2022-08-25T20:12:24.248Z,24.30
2022-08-25T20:14:56.110Z,24.25
2022-08-25T20:17:28.343Z,24.20
2022-08-25T20:20:04.851Z,24.15
2022-08-25T20:22:33.859Z,24.11
2022-08-25T20:25:13.139Z,24.06
2022-08-25T20:27:54.708Z,24.01
2022-08-25T20:30:27.537Z,23.97
2022-08-25T20:32:57.350Z,23.93
2022-08-25T20:35:27.797Z,23.90
2022-08-25T20:37:58.294Z,23.85
2022-08-25T20:40:27.993Z,23.80
2022-08-25T20:43:03.094Z,23.81
2022-08-25T20:45:32.022Z,23.81
2022-08-25T20:48:00.444Z,23.78
2022-08-25T20:50:28.819Z,23.75
2022-08-25T20:52:58.744Z,23.72
2022-08-25T20:55:28.888Z,23.71
2022-08-25T20:57:57.294Z,23.69
2022-08-25T21:00:26.075Z,23.64
2022-08-25T21:02:57.239Z,23.59
2022-08-25T21:05:25.702Z,23.57
2022-08-25T21:07:54.810Z,23.51
2022-08-25T21:10:23.090Z,23.48
2022-08-25T21:12:53.464Z,23.44
2022-08-25T21:15:22.295Z,23.40
2022-08-25T21:17:54.462Z,23.37
2022-08-25T21:20:24.803Z,23.32
2022-08-25T21:22:54.918Z,23.31
2022-08-25T21:25:23.779Z,23.31
2022-08-25T21:27:52.514Z,23.32
2022-08-25T21:30:21.256Z,23.31
2022-08-25T21:32:53.031Z,23.31
2022-08-25T21:35:27.133Z,23.31
2022-08-25T21:37:55.491Z,23.32
2022-08-25T21:40:24.065Z,23.34
2022-08-25T21:42:52.726Z,23.35
2022-08-25T21:45:21.846Z,23.37
2022-08-25T21:47:52.001Z,23.37
2022-08-25T21:50:22.364Z,23.36
2022-08-25T21:52:54.336Z,23.34
2022-08-25T21:55:24.050Z,23.33
2022-08-25T21:57:53.123Z,23.32
2022-08-25T22:00:22.747Z,23.30
2022-08-25T22:02:51.599Z,23.28
2022-08-25T22:05:20.029Z,23.29
2022-08-25T22:07:48.621Z,23.29
2022-08-25T22:10:18.217Z,23.28
2022-08-25T22:12:48.213Z,23.27
2022-08-25T22:15:18.022Z,23.25
2022-08-25T22:17:48.183Z,23.23
2022-08-25T22:20:16.999Z,23.21
2022-08-25T22:22:45.552Z,23.21
2022-08-25T22:25:14.489Z,23.20
2022-08-25T22:27:43.119Z,23.19
2022-08-25T22:30:13.858Z,23.16
2022-08-25T22:32:45.732Z,23.16
2022-08-25T22:35:14.351Z,23.13
2022-08-25T22:37:43.357Z,23.13
2022-08-25T22:40:12.695Z,23.09
2022-08-25T22:42:46.083Z,23.09
2022-08-25T22:45:16.915Z,23.06
2022-08-25T22:47:48.792Z,23.04
2022-08-25T22:50:17.497Z,23.01
2022-08-25T22:52:47.719Z,22.98
2022-08-25T22:55:16.546Z,22.96
2022-08-25T22:57:45.188Z,22.93
2022-08-25T23:00:14.877Z,22.92
2022-08-25T23:02:44.801Z,22.87
2022-08-25T23:05:14.955Z,22.84
2022-08-25T23:07:43.543Z,22.82
2022-08-25T23:10:12.489Z,22.77
2022-08-25T23:12:42.655Z,22.71
2022-08-25T23:15:12.970Z,22.67
2022-08-25T23:17:42.663Z,22.61
2022-08-25T23:20:29.642Z,22.57
2022-08-25T23:22:59.317Z,22.51
2022-08-25T23:25:27.657Z,22.46
2022-08-25T23:27:56.486Z,22.43
2022-08-25T23:30:27.562Z,22.39
2022-08-25T23:32:56.068Z,22.35
2022-08-25T23:35:24.642Z,22.34
2022-08-25T23:37:52.997Z,22.30
2022-08-25T23:40:21.709Z,22.27
2022-08-25T23:42:51.333Z,22.22
2022-08-25T23:45:19.848Z,22.18
2022-08-25T23:47:49.652Z,22.13
2022-08-25T23:50:18.537Z,22.09
2022-08-25T23:52:47.688Z,22.04
2022-08-25T23:55:16.050Z,22.00
2022-08-25T23:57:45.059Z,21.96
